Time;durP1;ratioP1;P1;durP2;ratioP2;P2;SDS_P1;SDS_P2;PMS_P1;PMS_P2;Temp;Humidity;BMP_temperature;BMP_pressure;BME280_temperature;BME280_humidity;BME280_pressure;Samples;Min_cycle;Max_cycle;Signal;HPM_P1;HPM_P2
2023/09/13 00:02:19;;;;;;;0.47;0.45;;;18.30;99.90;;;;;;5013097;28;20509;-70
2023/09/13 00:04:44;;;;;;;0.30;0.30;;;18.20;99.90;;;;;;5030429;28;20045;-70
2023/09/13 00:07:10;;;;;;;0.30;0.30;;;18.20;99.90;;;;;;5029284;28;20068;-70
2023/09/13 00:09:40;;;;;;;0.43;0.43;;;18.20;99.90;;;;;;5027512;28;20924;-70
2023/09/13 00:12:09;;;;;;;0.40;0.40;;;18.20;99.90;;;;;;5008204;28;20054;-70
2023/09/13 00:14:35;;;;;;;0.40;0.40;;;18.20;99.90;;;;;;5013353;28;20091;-70
2023/09/13 00:17:01;;;;;;;0.65;0.65;;;18.20;99.90;;;;;;5029149;28;20049;-70
2023/09/13 00:19:30;;;;;;;0.50;0.50;;;18.20;99.90;;;;;;5008683;28;20045;-70
2023/09/13 00:21:56;;;;;;;0.73;0.73;;;18.20;99.90;;;;;;5010814;28;20510;-70
2023/09/13 00:24:21;;;;;;;0.52;0.52;;;18.20;99.90;;;;;;5026235;28;20084;-70
2023/09/13 00:26:47;;;;;;;0.50;0.50;;;18.30;99.90;;;;;;5022053;28;20045;-70
2023/09/13 00:29:14;;;;;;;0.30;0.30;;;18.30;99.90;;;;;;5028540;28;20619;-70
2023/09/13 00:31:40;;;;;;;0.50;0.50;;;18.20;99.90;;;;;;5028693;28;20041;-70
2023/09/13 00:34:07;;;;;;;0.70;0.70;;;18.20;99.90;;;;;;5025382;28;20045;-70
2023/09/13 00:36:33;;;;;;;0.20;0.20;;;18.20;99.90;;;;;;5026981;28;20486;-70
2023/09/13 00:38:58;;;;;;;0.60;0.60;;;18.20;99.90;;;;;;5009927;28;20053;-70
2023/09/13 00:41:24;;;;;;;0.50;0.50;;;18.10;99.90;;;;;;5028117;28;20060;-70
2023/09/13 00:43:50;;;;;;;2.20;0.82;;;18.10;99.90;;;;;;5026813;28;20041;-70
2023/09/13 00:46:16;;;;;;;0.63;0.40;;;18.10;99.90;;;;;;5028111;28;20059;-70
2023/09/13 00:48:42;;;;;;;0.28;0.28;;;18.10;99.90;;;;;;5028427;28;20052;-70
2023/09/13 00:51:09;;;;;;;0.95;0.95;;;18.10;99.90;;;;;;5026879;28;20045;-70
2023/09/13 00:53:35;;;;;;;0.68;0.38;;;18.10;99.90;;;;;;5025675;28;20084;-70
2023/09/13 00:56:02;;;;;;;0.30;0.30;;;18.10;99.90;;;;;;5028144;28;20041;-70
2023/09/13 00:58:29;;;;;;;0.30;0.30;;;18.10;99.90;;;;;;5026523;28;20132;-70
2023/09/13 01:00:55;;;;;;;0.50;0.50;;;18.00;99.90;;;;;;5027562;28;20060;-70
2023/09/13 01:03:22;;;;;;;0.45;0.45;;;18.00;99.90;;;;;;5010595;28;20057;-70
2023/09/13 01:05:54;;;;;;;0.40;0.40;;;18.00;99.90;;;;;;5027557;28;20047;-69
2023/09/13 01:08:23;;;;;;;0.40;0.40;;;18.00;99.90;;;;;;5009028;28;20069;-70
2023/09/13 01:10:48;;;;;;;0.60;0.60;;;17.90;99.90;;;;;;5024894;28;20128;-70
2023/09/13 01:13:14;;;;;;;0.77;0.77;;;17.90;99.90;;;;;;5027186;28;20041;-70
2023/09/13 01:16:14;;;;;;;0.47;0.47;;;17.90;99.90;;;;;;5002763;28;20053;-70
2023/09/13 01:19:10;;;;;;;0.47;0.40;;;17.80;99.90;;;;;;5008610;28;20699;-70
2023/09/13 01:22:09;;;;;;;0.40;0.40;;;17.80;99.90;;;;;;5010537;28;20049;-70
2023/09/13 01:24:51;;;;;;;0.75;0.75;;;17.80;99.90;;;;;;5008572;28;20643;-69
2023/09/13 01:27:35;;;;;;;0.40;0.40;;;17.70;99.90;;;;;;5006533;28;20045;-69
2023/09/13 01:30:04;;;;;;;0.40;0.40;;;17.70;99.90;;;;;;5009309;28;20042;-70
2023/09/13 01:32:32;;;;;;;;;;;17.70;99.90;;;;;;5030943;28;20120;-70
2023/09/13 01:34:58;;;;;;;0.50;0.50;;;17.70;99.90;;;;;;5008463;28;19925;-70
2023/09/13 01:37:23;;;;;;;0.57;0.40;;;17.70;99.90;;;;;;5029093;28;20137;-70
2023/09/13 01:39:49;;;;;;;0.30;0.30;;;17.70;99.90;;;;;;5027976;28;20041;-70
2023/09/13 01:42:16;;;;;;;0.75;0.75;;;17.60;99.90;;;;;;5007903;28;20132;-70
2023/09/13 01:44:45;;;;;;;0.40;0.40;;;17.60;99.90;;;;;;5026850;28;20084;-70
2023/09/13 01:47:12;;;;;;;0.30;0.30;;;17.50;99.90;;;;;;5026909;28;20041;-70
2023/09/13 01:49:40;;;;;;;0.45;0.45;;;17.50;99.90;;;;;;5029027;28;20628;-70
2023/09/13 01:52:06;;;;;;;1.15;0.65;;;17.50;99.90;;;;;;5031231;28;20091;-70
2023/09/13 01:54:36;;;;;;;0.82;0.60;;;17.40;99.90;;;;;;5026220;28;20053;-70
2023/09/13 01:57:02;;;;;;;0.88;0.73;;;17.40;99.90;;;;;;5003502;28;20110;-70
2023/09/13 01:59:28;;;;;;;0.75;0.75;;;17.40;99.90;;;;;;5006069;28;20041;-70
2023/09/13 02:01:54;;;;;;;0.40;0.40;;;17.30;99.90;;;;;;5006652;28;20142;-70
2023/09/13 02:04:19;;;;;;;0.47;0.47;;;17.30;99.90;;;;;;5007132;28;20534;-70
2023/09/13 02:06:45;;;;;;;0.50;0.50;;;17.30;99.90;;;;;;5007419;28;20049;-69
2023/09/13 02:09:14;;;;;;;0.52;0.52;;;17.30;99.90;;;;;;5024593;28;20038;-70
2023/09/13 02:11:40;;;;;;;0.30;0.30;;;17.30;99.90;;;;;;5012818;28;20053;-70
2023/09/13 02:14:05;;;;;;;0.47;0.47;;;17.30;99.90;;;;;;5025845;28;20053;-70
2023/09/13 02:16:31;;;;;;;0.55;0.45;;;17.20;99.90;;;;;;4998518;28;20034;-70
2023/09/13 02:18:57;;;;;;;0.85;0.77;;;17.20;99.90;;;;;;5009697;28;20100;-70
2023/09/13 02:21:23;;;;;;;0.30;0.30;;;17.10;99.90;;;;;;5007448;28;20046;-70
2023/09/13 02:23:48;;;;;;;0.65;0.65;;;17.10;99.90;;;;;;5026480;28;20059;-70
2023/09/13 02:26:22;;;;;;;0.63;0.63;;;17.10;99.90;;;;;;5001607;28;20433;-70
2023/09/13 02:28:48;;;;;;;0.90;0.90;;;17.00;99.90;;;;;;5018221;28;20045;-70
2023/09/13 02:31:25;;;;;;;0.70;0.70;;;17.00;99.90;;;;;;5026071;28;20044;-70
2023/09/13 02:33:51;;;;;;;0.20;0.20;;;17.00;99.90;;;;;;5022639;28;20544;-70
2023/09/13 02:36:17;;;;;;;0.30;0.30;;;16.90;99.90;;;;;;5005926;28;20077;-70
2023/09/13 02:38:43;;;;;;;0.60;0.60;;;16.90;99.90;;;;;;5024324;28;20053;-70
2023/09/13 02:41:08;;;;;;;0.32;0.32;;;16.90;99.90;;;;;;5024541;28;20160;-70
2023/09/13 02:43:34;;;;;;;0.32;0.32;;;16.80;99.90;;;;;;5008238;28;20506;-69
2023/09/13 02:45:59;;;;;;;0.32;0.32;;;16.80;99.90;;;;;;5006784;28;20061;-70
2023/09/13 02:48:25;;;;;;;0.30;0.30;;;16.80;99.90;;;;;;5021532;28;20059;-70
2023/09/13 02:50:51;;;;;;;0.52;0.52;;;16.70;99.90;;;;;;5008083;28;20128;-70
2023/09/13 02:53:17;;;;;;;0.45;0.45;;;16.70;99.90;;;;;;5003811;28;20053;-70
2023/09/13 02:55:43;;;;;;;0.63;0.63;;;16.70;99.90;;;;;;5031888;28;20126;-70
2023/09/13 02:58:08;;;;;;;0.28;0.28;;;16.70;99.90;;;;;;5005222;28;20060;-70
2023/09/13 03:00:34;;;;;;;0.77;0.77;;;16.70;99.90;;;;;;5014451;28;20530;-70
2023/09/13 03:03:00;;;;;;;0.40;0.40;;;16.70;99.90;;;;;;5012043;28;20048;-70
2023/09/13 03:05:26;;;;;;;0.40;0.40;;;16.60;99.90;;;;;;5012597;28;20045;-70
2023/09/13 03:07:54;;;;;;;0.25;0.25;;;16.60;99.90;;;;;;5030110;28;20441;-70
2023/09/13 03:10:20;;;;;;;0.38;0.38;;;16.60;99.90;;;;;;5016857;28;20041;-69
2023/09/13 03:12:45;;;;;;;0.60;0.60;;;16.60;99.90;;;;;;5013855;28;20583;-70
2023/09/13 03:15:11;;;;;;;0.40;0.40;;;16.60;99.90;;;;;;5020100;28;20050;-70
2023/09/13 03:17:37;;;;;;;0.82;0.63;;;16.60;99.90;;;;;;5011273;28;20037;-70
2023/09/13 03:20:03;;;;;;;0.40;0.40;;;16.60;99.90;;;;;;5029454;28;20083;-70
2023/09/13 03:22:28;;;;;;;0.30;0.30;;;16.60;99.90;;;;;;5029408;28;20502;-69
2023/09/13 03:24:54;;;;;;;0.50;0.50;;;16.60;99.90;;;;;;5010009;28;20109;-70
2023/09/13 03:27:20;;;;;;;0.43;0.43;;;16.60;99.90;;;;;;5012290;28;20046;-69
2023/09/13 03:29:45;;;;;;;0.60;0.60;;;16.60;99.90;;;;;;5011255;28;20441;-69
2023/09/13 03:32:11;;;;;;;0.30;0.30;;;16.60;99.90;;;;;;5028908;28;20049;-69
2023/09/13 03:34:37;;;;;;;0.55;0.55;;;16.60;99.90;;;;;;5013494;28;20052;-70
2023/09/13 03:37:04;;;;;;;0.30;0.30;;;16.60;99.90;;;;;;5012150;28;20045;-70
2023/09/13 03:39:31;;;;;;;0.40;0.40;;;16.60;99.90;;;;;;5010722;28;20099;-69
2023/09/13 03:41:57;;;;;;;0.20;0.20;;;16.60;99.90;;;;;;5000596;28;20086;-69
2023/09/13 03:44:23;;;;;;;0.30;0.30;;;16.60;99.90;;;;;;5002199;28;20046;-70
2023/09/13 03:46:49;;;;;;;0.50;0.50;;;16.60;99.90;;;;;;5011441;28;20460;-70
2023/09/13 03:49:14;;;;;;;0.30;0.30;;;16.60;99.90;;;;;;5018809;28;20061;-69
2023/09/13 03:51:40;;;;;;;0.95;0.95;;;16.60;99.90;;;;;;5004458;28;20053;-70
2023/09/13 03:54:08;;;;;;;0.80;0.80;;;16.60;99.90;;;;;;5012307;28;20053;-69
2023/09/13 03:56:33;;;;;;;0.30;0.30;;;16.60;99.90;;;;;;5029595;28;20487;-69
2023/09/13 03:58:59;;;;;;;0.40;0.40;;;16.60;99.90;;;;;;5006667;28;20042;-69
2023/09/13 04:01:25;;;;;;;0.40;0.40;;;16.60;99.90;;;;;;5017501;28;20052;-69
2023/09/13 04:03:51;;;;;;;0.30;0.30;;;16.60;99.90;;;;;;5010771;28;20061;-69
2023/09/13 04:06:18;;;;;;;0.40;0.40;;;16.60;99.90;;;;;;5011122;28;20079;-69
2023/09/13 04:08:43;;;;;;;0.55;0.55;;;16.70;99.90;;;;;;5011128;28;20053;-69
2023/09/13 04:11:10;;;;;;;0.30;0.30;;;16.70;99.90;;;;;;5010581;28;20041;-70
2023/09/13 04:13:36;;;;;;;1.02;1.02;;;16.60;99.90;;;;;;5029014;28;20045;-69
2023/09/13 04:16:06;;;;;;;0.40;0.40;;;16.60;99.90;;;;;;5033177;28;20446;-69
2023/09/13 04:18:32;;;;;;;0.40;0.40;;;16.60;99.90;;;;;;5036930;28;20447;-70
2023/09/13 04:20:58;;;;;;;0.43;0.43;;;16.60;99.90;;;;;;5027983;28;20102;-70
2023/09/13 04:23:24;;;;;;;0.55;0.55;;;16.60;99.90;;;;;;5024428;28;20117;-69
2023/09/13 04:25:49;;;;;;;0.30;0.30;;;16.60;99.90;;;;;;5004803;28;20124;-69
2023/09/13 04:28:15;;;;;;;0.75;0.75;;;16.60;99.90;;;;;;5010876;28;20042;-69
2023/09/13 04:30:41;;;;;;;0.40;0.40;;;16.60;99.90;;;;;;5025994;28;20044;-70
2023/09/13 04:33:07;;;;;;;0.98;0.88;;;16.60;99.90;;;;;;5009152;28;20120;-69
2023/09/13 04:35:33;;;;;;;0.40;0.40;;;16.60;99.90;;;;;;5009295;28;20845;-70
2023/09/13 04:38:00;;;;;;;0.35;0.35;;;16.60;99.90;;;;;;5028196;28;20053;-70
2023/09/13 04:40:26;;;;;;;0.75;0.75;;;16.60;99.90;;;;;;5027817;28;20092;-70
2023/09/13 04:43:15;;;;;;;0.43;0.43;;;16.50;99.90;;;;;;5029052;28;20077;-70
2023/09/13 04:45:41;;;;;;;0.52;0.52;;;16.50;99.90;;;;;;5030814;28;20053;-69
2023/09/13 04:48:06;;;;;;;0.38;0.38;;;16.50;99.90;;;;;;5028142;28;20042;-70
2023/09/13 04:50:32;;;;;;;0.82;0.82;;;16.50;99.90;;;;;;5009745;28;20060;-70
2023/09/13 04:52:58;;;;;;;0.50;0.50;;;16.40;99.90;;;;;;5009910;28;20060;-70
2023/09/13 04:55:26;;;;;;;0.47;0.47;;;16.40;99.90;;;;;;5023909;28;20121;-70
2023/09/13 04:57:52;;;;;;;0.30;0.30;;;16.40;99.90;;;;;;4994183;28;20049;-70
2023/09/13 05:00:18;;;;;;;0.50;0.50;;;16.40;99.90;;;;;;5020484;28;20410;-70
2023/09/13 05:02:45;;;;;;;0.60;0.60;;;16.30;99.90;;;;;;5027504;28;20840;-70
2023/09/13 05:05:10;;;;;;;0.28;0.28;;;16.30;99.90;;;;;;5026898;28;20095;-71
2023/09/13 05:07:36;;;;;;;0.55;0.55;;;16.30;99.90;;;;;;5024777;28;20438;-70
2023/09/13 05:10:02;;;;;;;1.38;1.27;;;16.20;99.90;;;;;;5027661;28;20048;-70
2023/09/13 05:12:27;;;;;;;0.57;0.57;;;16.10;99.90;;;;;;5026305;28;20092;-70
2023/09/13 05:14:53;;;;;;;0.70;0.70;;;16.10;99.90;;;;;;5024685;28;20690;-69
2023/09/13 05:17:19;;;;;;;0.38;0.38;;;16.00;99.90;;;;;;5027479;28;20037;-70
2023/09/13 05:19:44;;;;;;;0.40;0.40;;;16.00;99.90;;;;;;5024657;28;20116;-69
2023/09/13 05:22:10;;;;;;;0.30;0.30;;;15.90;99.90;;;;;;5026988;28;20128;-70
2023/09/13 05:24:35;;;;;;;0.95;0.95;;;15.90;99.90;;;;;;5010085;28;20041;-69
2023/09/13 05:27:01;;;;;;;0.40;0.40;;;15.80;99.90;;;;;;5025606;28;20072;-69
2023/09/13 05:29:28;;;;;;;0.30;0.30;;;15.80;99.90;;;;;;5034135;28;20404;-69
2023/09/13 05:31:54;;;;;;;0.20;0.20;;;15.90;99.90;;;;;;5028691;28;20525;-70
2023/09/13 05:34:19;;;;;;;0.30;0.30;;;15.90;99.90;;;;;;5026648;28;20041;-69
2023/09/13 05:36:45;;;;;;;0.20;0.20;;;15.80;99.90;;;;;;5030667;28;20156;-69
2023/09/13 05:39:11;;;;;;;0.30;0.30;;;15.80;99.90;;;;;;5026230;28;20595;-70
2023/09/13 05:41:38;;;;;;;0.20;0.20;;;15.80;99.90;;;;;;5006079;28;20048;-69
2023/09/13 05:44:08;;;;;;;0.47;0.47;;;15.80;99.90;;;;;;5025802;28;20271;-69
2023/09/13 05:46:34;;;;;;;0.40;0.40;;;15.70;99.90;;;;;;5026822;28;20044;-70
2023/09/13 05:49:01;;;;;;;0.55;0.55;;;15.70;99.90;;;;;;5026146;28;20037;-70
2023/09/13 05:51:27;;;;;;;0.50;0.50;;;15.70;99.90;;;;;;5010002;28;20049;-70
2023/09/13 05:53:53;;;;;;;2.90;0.85;;;15.60;99.90;;;;;;5027243;28;20939;-70
2023/09/13 05:56:18;;;;;;;1.08;1.00;;;15.60;99.90;;;;;;5025472;28;20803;-70
2023/09/13 05:58:44;;;;;;;0.63;0.60;;;15.50;99.90;;;;;;5010078;28;20411;-70
2023/09/13 06:01:13;;;;;;;1.35;1.35;;;15.40;99.90;;;;;;5024338;28;20057;-71
2023/09/13 06:03:40;;;;;;;0.43;0.43;;;15.20;99.90;;;;;;5008544;28;20050;-73
2023/09/13 06:06:05;;;;;;;0.28;0.28;;;15.10;99.90;;;;;;5009175;28;20414;-72
2023/09/13 06:08:31;;;;;;;0.30;0.30;;;15.00;99.90;;;;;;5009260;28;20045;-71
2023/09/13 06:10:56;;;;;;;1.00;0.82;;;14.90;99.90;;;;;;5007730;28;20049;-72
2023/09/13 06:13:22;;;;;;;0.50;0.50;;;14.90;99.90;;;;;;5008947;28;20421;-72
2023/09/13 06:15:48;;;;;;;0.40;0.40;;;14.90;99.90;;;;;;5025012;28;21286;-72
2023/09/13 06:18:14;;;;;;;0.30;0.30;;;14.90;99.90;;;;;;5008854;28;20072;-72
2023/09/13 06:20:39;;;;;;;0.68;0.68;;;15.00;99.90;;;;;;5007338;28;20048;-71
2023/09/13 06:23:05;;;;;;;0.38;0.38;;;14.90;99.90;;;;;;5020418;28;20049;-72
2023/09/13 06:25:31;;;;;;;0.32;0.32;;;15.00;99.90;;;;;;5005460;28;20088;-72
2023/09/13 06:27:56;;;;;;;0.30;0.30;;;15.00;99.90;;;;;;5007956;28;20116;-72
2023/09/13 06:30:22;;;;;;;0.73;0.73;;;14.90;99.90;;;;;;5009961;28;20048;-73
2023/09/13 06:32:48;;;;;;;0.30;0.30;;;14.90;99.90;;;;;;5007247;28;20068;-72
2023/09/13 06:35:14;;;;;;;0.90;0.60;;;14.80;99.90;;;;;;5007991;28;20037;-73
2023/09/13 06:37:40;;;;;;;0.32;0.32;;;14.70;99.90;;;;;;5014832;28;20042;-72
2023/09/13 06:40:06;;;;;;;0.50;0.50;;;14.70;99.90;;;;;;5011894;28;20438;-73
2023/09/13 06:42:32;;;;;;;0.30;0.30;;;14.70;99.90;;;;;;5012885;28;20045;-73
2023/09/13 06:44:59;;;;;;;0.40;0.40;;;14.70;99.90;;;;;;5007858;28;20484;-74
2023/09/13 06:47:28;;;;;;;0.30;0.30;;;14.70;99.90;;;;;;5007627;28;20081;-72
2023/09/13 06:49:57;;;;;;;0.30;0.30;;;14.70;99.90;;;;;;5006270;28;20053;-72
2023/09/13 06:52:23;;;;;;;0.65;0.65;;;14.70;99.90;;;;;;5004983;28;20038;-73
2023/09/13 06:54:48;;;;;;;1.10;1.05;;;14.60;99.90;;;;;;5011012;28;20045;-73
2023/09/13 06:57:16;;;;;;;0.95;0.85;;;14.60;99.90;;;;;;5011151;28;20120;-73
2023/09/13 06:59:41;;;;;;;0.45;0.45;;;14.50;99.90;;;;;;5012287;28;20822;-73
2023/09/13 07:02:08;;;;;;;0.45;0.45;;;14.50;99.90;;;;;;5011895;28;20061;-73
2023/09/13 07:04:35;;;;;;;0.60;0.60;;;14.50;99.90;;;;;;5021302;28;20046;-73
2023/09/13 07:07:00;;;;;;;0.40;0.40;;;14.50;99.90;;;;;;5011912;28;20050;-73
2023/09/13 07:09:26;;;;;;;1.10;1.00;;;14.40;99.90;;;;;;5008223;28;20093;-73
2023/09/13 07:11:52;;;;;;;1.30;0.60;;;14.40;99.90;;;;;;5008584;28;20601;-73
2023/09/13 07:14:18;;;;;;;0.55;0.52;;;14.40;99.90;;;;;;5012340;28;20060;-74
2023/09/13 07:16:43;;;;;;;0.30;0.30;;;14.40;99.90;;;;;;5029252;28;20044;-73
2023/09/13 07:19:09;;;;;;;1.00;0.60;;;14.40;99.90;;;;;;5014713;28;20049;-74
2023/09/13 07:21:35;;;;;;;0.40;0.40;;;14.40;99.90;;;;;;5013419;28;20049;-73
2023/09/13 07:24:01;;;;;;;0.30;0.30;;;14.50;99.90;;;;;;5012489;28;20124;-72
2023/09/13 07:26:27;;;;;;;0.82;0.82;;;14.50;99.90;;;;;;4997398;28;20571;-72
2023/09/13 07:28:53;;;;;;;0.65;0.65;;;14.50;99.90;;;;;;5015931;28;20048;-72
2023/09/13 07:31:21;;;;;;;0.30;0.30;;;14.50;99.90;;;;;;5009469;28;20055;-72
2023/09/13 07:33:46;;;;;;;0.43;0.43;;;14.50;99.90;;;;;;5010097;28;20049;-72
2023/09/13 07:36:13;;;;;;;0.80;0.80;;;14.50;99.90;;;;;;5009109;28;21096;-72
2023/09/13 07:38:39;;;;;;;0.30;0.30;;;14.50;99.90;;;;;;5010305;28;20538;-72
2023/09/13 07:41:04;;;;;;;1.10;0.95;;;14.50;99.90;;;;;;5025732;28;20072;-73
2023/09/13 07:43:30;;;;;;;0.50;0.50;;;14.40;99.90;;;;;;5004005;28;20046;-73
2023/09/13 07:45:55;;;;;;;0.93;0.30;;;14.40;99.90;;;;;;5002902;28;20064;-73
2023/09/13 07:48:23;;;;;;;1.40;1.17;;;14.40;99.90;;;;;;5001190;28;20101;-72
2023/09/13 07:50:48;;;;;;;0.30;0.30;;;14.40;99.90;;;;;;5010207;28;20045;-72
2023/09/13 07:53:14;;;;;;;0.22;0.22;;;14.40;99.90;;;;;;5010898;28;20048;-72
2023/09/13 07:55:40;;;;;;;0.50;0.50;;;14.40;99.90;;;;;;5011190;28;20049;-72
2023/09/13 07:58:07;;;;;;;1.50;0.68;;;14.40;99.90;;;;;;5009977;28;20446;-72
2023/09/13 08:00:33;;;;;;;0.70;0.70;;;14.40;99.90;;;;;;5009496;28;20056;-72
2023/09/13 08:03:01;;;;;;;1.25;1.05;;;14.50;99.90;;;;;;5011243;28;20410;-72
2023/09/13 08:05:27;;;;;;;0.60;0.60;;;14.50;99.90;;;;;;5009414;28;20050;-72
2023/09/13 08:07:53;;;;;;;1.27;0.95;;;14.60;99.90;;;;;;5007192;28;20052;-71
2023/09/13 08:10:21;;;;;;;0.70;0.70;;;14.60;99.90;;;;;;5010366;28;20046;-72
2023/09/13 08:12:48;;;;;;;0.50;0.50;;;14.70;99.90;;;;;;5012513;28;20514;-72
2023/09/13 08:15:14;;;;;;;0.40;0.40;;;14.70;99.90;;;;;;5005125;28;20056;-72
2023/09/13 08:17:39;;;;;;;1.52;1.33;;;14.80;99.90;;;;;;5010361;28;20045;-72
2023/09/13 08:20:08;;;;;;;0.40;0.40;;;14.80;99.90;;;;;;5010035;28;20061;-72
2023/09/13 08:22:35;;;;;;;0.60;0.60;;;14.90;99.90;;;;;;5010407;28;20540;-71
2023/09/13 08:25:00;;;;;;;0.40;0.40;;;14.90;99.90;;;;;;5027839;28;20041;-72
2023/09/13 08:27:26;;;;;;;1.80;1.70;;;14.90;99.90;;;;;;5010327;28;20611;-72
2023/09/13 08:29:53;;;;;;;0.40;0.40;;;15.00;99.90;;;;;;5011090;28;20041;-71
2023/09/13 08:32:19;;;;;;;0.60;0.60;;;15.00;99.90;;;;;;5008785;28;20056;-72
2023/09/13 08:34:45;;;;;;;0.73;0.73;;;15.00;99.90;;;;;;5009071;28;20045;-72
2023/09/13 08:37:10;;;;;;;0.75;0.75;;;15.10;99.90;;;;;;5004101;28;20076;-72
2023/09/13 08:39:36;;;;;;;0.68;0.45;;;15.20;99.90;;;;;;5010098;28;20082;-72
2023/09/13 08:42:01;;;;;;;1.33;1.25;;;15.10;99.90;;;;;;5009292;28;20095;-72
2023/09/13 08:44:30;;;;;;;0.73;0.73;;;15.20;99.90;;;;;;5009161;28;20057;-72
2023/09/13 08:46:58;;;;;;;1.70;1.60;;;15.20;99.90;;;;;;5009591;28;20141;-72
2023/09/13 08:49:24;;;;;;;;;;;15.30;99.90;;;;;;5004591;28;20081;-72
2023/09/13 08:51:51;;;;;;;2.47;1.58;;;15.30;99.90;;;;;;5009995;28;20386;-72
2023/09/13 08:54:18;;;;;;;1.27;0.70;;;15.40;99.90;;;;;;5010009;28;20045;-72
2023/09/13 08:56:45;;;;;;;0.70;0.70;;;15.40;99.90;;;;;;5009916;28;20045;-71
2023/09/13 08:59:15;;;;;;;0.73;0.73;;;15.40;99.90;;;;;;5006197;28;20140;-71
2023/09/13 09:01:50;;;;;;;0.68;0.68;;;15.50;99.90;;;;;;5007920;28;20045;-71
2023/09/13 09:04:20;;;;;;;0.73;0.50;;;15.50;99.90;;;;;;5007094;28;20517;-71
2023/09/13 09:06:47;;;;;;;0.77;0.77;;;15.60;99.90;;;;;;5022902;28;20057;-71
2023/09/13 09:09:14;;;;;;;0.65;0.65;;;15.70;99.90;;;;;;5013220;28;20057;-71
2023/09/13 09:11:47;;;;;;;0.88;0.88;;;15.80;99.90;;;;;;4988727;28;20509;-71
2023/09/13 09:14:15;;;;;;;1.17;1.08;;;15.80;99.90;;;;;;5001655;28;20804;-71
2023/09/13 09:16:42;;;;;;;1.45;1.35;;;15.90;99.90;;;;;;5020896;28;20473;-70
2023/09/13 09:19:13;;;;;;;0.43;0.43;;;15.90;99.90;;;;;;5126662;27;1255484;-70
2023/09/13 09:21:39;;;;;;;0.50;0.50;;;16.00;99.90;;;;;;5130756;27;20039;-71
2023/09/13 09:24:05;;;;;;;0.57;0.57;;;16.10;99.90;;;;;;5127692;27;20119;-71
2023/09/13 09:26:31;;;;;;;0.60;0.60;;;16.20;99.90;;;;;;5131769;27;20053;-70
2023/09/13 09:29:10;;;;;;;0.30;0.30;;;16.40;99.90;;;;;;5127733;27;20406;-70
2023/09/13 09:31:37;;;;;;;0.40;0.40;;;16.50;99.90;;;;;;5134544;27;20511;-70
2023/09/13 09:34:03;;;;;;;0.30;0.30;;;16.50;99.90;;;;;;5122764;27;20122;-70
2023/09/13 09:36:34;;;;;;;0.50;0.50;;;16.60;99.90;;;;;;5125908;27;20047;-70
2023/09/13 09:39:04;;;;;;;0.52;0.52;;;16.70;99.90;;;;;;5127348;27;20499;-70
2023/09/13 09:41:38;;;;;;;0.40;0.40;;;16.80;99.90;;;;;;5124880;27;20058;-70
2023/09/13 09:44:04;;;;;;;0.43;0.43;;;16.90;99.90;;;;;;5125187;27;20049;-70
2023/09/13 09:46:33;;;;;;;0.82;0.63;;;16.90;99.90;;;;;;5145649;27;20512;-71
2023/09/13 09:49:00;;;;;;;0.50;0.50;;;17.10;99.90;;;;;;5132941;27;20134;-71
2023/09/13 09:51:28;;;;;;;0.32;0.32;;;17.20;99.90;;;;;;5115628;27;20054;-70
2023/09/13 09:53:56;;;;;;;0.88;0.75;;;17.30;99.90;;;;;;5130411;27;20049;-70
2023/09/13 09:56:22;;;;;;;0.60;0.60;;;17.40;99.90;;;;;;5124204;27;20055;-70
2023/09/13 09:58:48;;;;;;;2.90;1.45;;;17.40;99.90;;;;;;5150247;27;20055;-70
2023/09/13 10:01:17;;;;;;;0.60;0.60;;;17.40;99.90;;;;;;5129955;27;20054;-71
2023/09/13 10:03:44;;;;;;;0.60;0.60;;;17.50;99.90;;;;;;5131296;27;20054;-71
2023/09/13 10:06:11;;;;;;;0.52;0.52;;;17.80;99.90;;;;;;5125542;27;20047;-73
2023/09/13 10:08:41;;;;;;;0.65;0.65;;;18.00;99.90;;;;;;5113253;28;20139;-70
2023/09/13 10:11:08;;;;;;;0.52;0.52;;;18.30;99.90;;;;;;5127623;27;20055;-70
2023/09/13 10:13:35;;;;;;;1.75;1.63;;;18.60;99.90;;;;;;5096800;28;20047;-70
2023/09/13 10:16:02;;;;;;;0.40;0.40;;;18.50;99.90;;;;;;5121840;27;20039;-69
2023/09/13 10:18:31;;;;;;;1.05;1.05;;;18.40;99.90;;;;;;5104043;28;20056;-69
2023/09/13 10:20:58;;;;;;;0.30;0.30;;;18.30;99.90;;;;;;5101796;28;20048;-70
2023/09/13 10:23:36;;;;;;;0.32;0.32;;;18.20;99.90;;;;;;5115704;28;20039;-70
2023/09/13 10:26:02;;;;;;;0.30;0.30;;;18.00;99.90;;;;;;5107810;28;20040;-72
2023/09/13 10:28:32;;;;;;;0.47;0.47;;;18.00;99.90;;;;;;5107568;28;20043;-71
2023/09/13 10:31:01;;;;;;;1.20;1.10;;;17.80;99.90;;;;;;5079132;28;20040;-70
2023/09/13 10:33:31;;;;;;;0.30;0.30;;;17.60;99.90;;;;;;5083589;28;20049;-70
2023/09/13 10:36:01;;;;;;;0.38;0.38;;;17.60;99.90;;;;;;5084922;28;20051;-71
2023/09/13 10:38:40;;;;;;;0.60;0.60;;;17.50;99.90;;;;;;5094084;28;20062;-70
2023/09/13 10:41:10;;;;;;;0.30;0.30;;;17.40;99.90;;;;;;5080422;28;20048;-71
2023/09/13 10:43:37;;;;;;;0.38;0.38;;;17.30;99.90;;;;;;5096376;27;20061;-71
2023/09/13 10:46:04;;;;;;;0.77;0.75;;;17.30;99.90;;;;;;5088329;28;20065;-71
2023/09/13 10:48:31;;;;;;;0.45;0.45;;;17.30;99.90;;;;;;5090794;28;20052;-71
2023/09/13 10:50:58;;;;;;;0.50;0.50;;;17.20;99.90;;;;;;5089372;28;20094;-71
2023/09/13 10:53:25;;;;;;;0.85;0.73;;;17.20;99.90;;;;;;5077803;28;20075;-71
2023/09/13 10:55:52;;;;;;;0.57;0.57;;;17.00;99.90;;;;;;5087760;28;20082;-71
2023/09/13 10:58:20;;;;;;;0.32;0.32;;;16.80;99.90;;;;;;5090563;28;20067;-71
2023/09/13 11:00:49;;;;;;;0.50;0.50;;;16.80;99.90;;;;;;5091970;28;20105;-71
2023/09/13 11:03:16;;;;;;;0.40;0.40;;;16.70;99.90;;;;;;5087759;28;20048;-71
2023/09/13 11:05:46;;;;;;;0.40;0.40;;;16.70;99.90;;;;;;5087571;28;20446;-71
2023/09/13 11:08:26;;;;;;;0.30;0.30;;;16.70;99.90;;;;;;5083401;28;20298;-71
2023/09/13 11:10:54;;;;;;;0.75;0.75;;;16.80;99.90;;;;;;5095784;28;20040;-71
2023/09/13 11:13:29;;;;;;;0.50;0.50;;;16.90;99.90;;;;;;5089712;28;20053;-71
2023/09/13 11:15:56;;;;;;;0.40;0.40;;;17.00;99.90;;;;;;5085940;28;20060;-71
2023/09/13 11:18:25;;;;;;;0.60;0.60;;;17.20;99.90;;;;;;5095020;28;20064;-71
2023/09/13 11:20:52;;;;;;;0.30;0.30;;;17.30;99.90;;;;;;5092021;28;20074;-71
2023/09/13 11:23:18;;;;;;;0.30;0.30;;;17.50;99.90;;;;;;5087695;28;20496;-71
2023/09/13 11:25:49;;;;;;;0.40;0.40;;;17.70;99.90;;;;;;5087741;28;20123;-71
2023/09/13 11:28:29;;;;;;;0.40;0.40;;;17.80;99.90;;;;;;5101395;28;20566;-71
2023/09/13 11:30:59;;;;;;;0.40;0.40;;;17.90;99.90;;;;;;5084497;28;20076;-71
2023/09/13 11:33:27;;;;;;;0.40;0.40;;;18.00;99.90;;;;;;5074349;28;20052;-71
2023/09/13 11:35:55;;;;;;;0.30;0.30;;;18.20;99.90;;;;;;5085276;28;20051;-71
2023/09/13 11:38:23;;;;;;;0.40;0.40;;;18.50;99.90;;;;;;5088273;28;20050;-71
2023/09/13 11:40:49;;;;;;;0.50;0.45;;;18.60;99.90;;;;;;5084484;28;20103;-71
2023/09/13 11:43:23;;;;;;;0.63;0.63;;;18.70;99.90;;;;;;5087357;28;20450;-71
2023/09/13 11:45:52;;;;;;;0.85;0.68;;;18.80;99.90;;;;;;5088999;28;20125;-72
2023/09/13 11:48:40;;;;;;;0.30;0.30;;;18.90;99.90;;;;;;5085753;28;20052;-71
2023/09/13 11:51:11;;;;;;;0.30;0.30;;;19.10;99.90;;;;;;5089921;28;20093;-71
2023/09/13 11:53:38;;;;;;;0.30;0.30;;;19.30;99.90;;;;;;5087622;28;20055;-71
2023/09/13 11:56:03;;;;;;;0.93;0.93;;;19.50;99.90;;;;;;5082986;28;20040;-72
2023/09/13 11:58:31;;;;;;;0.40;0.40;;;19.60;99.90;;;;;;5091091;28;20048;-71
2023/09/13 12:01:00;;;;;;;0.50;0.50;;;19.70;99.90;;;;;;5085884;28;20048;-71
2023/09/13 12:03:30;;;;;;;0.30;0.30;;;19.70;99.90;;;;;;5086560;28;20048;-71
2023/09/13 12:05:57;;;;;;;0.30;0.30;;;19.50;99.90;;;;;;5087850;28;20571;-70
2023/09/13 12:08:27;;;;;;;0.93;0.93;;;19.50;99.90;;;;;;5085584;28;20433;-71
2023/09/13 12:10:56;;;;;;;0.30;0.30;;;19.50;99.90;;;;;;5075170;28;20059;-71
2023/09/13 12:13:40;;;;;;;1.13;1.02;;;19.60;99.90;;;;;;5099865;28;20512;-71
2023/09/13 12:16:06;;;;;;;0.55;0.55;;;19.70;99.90;;;;;;5076789;28;20056;-71
2023/09/13 12:18:31;;;;;;;0.30;0.30;;;19.60;99.90;;;;;;5097431;28;20043;-70
2023/09/13 12:20:58;;;;;;;0.50;0.50;;;19.70;99.90;;;;;;5073965;28;20078;-70
2023/09/13 12:23:25;;;;;;;0.30;0.30;;;19.50;99.90;;;;;;5087998;28;20092;-70
2023/09/13 12:25:55;;;;;;;0.47;0.47;;;19.30;99.90;;;;;;5092427;28;20568;-70
2023/09/13 12:28:31;;;;;;;0.52;0.52;;;19.10;99.90;;;;;;5092969;27;20051;-70
2023/09/13 12:30:57;;;;;;;0.65;0.65;;;19.00;99.90;;;;;;5112686;27;20454;-70
2023/09/13 12:33:23;;;;;;;0.30;0.30;;;19.00;99.90;;;;;;5089614;28;20051;-70
2023/09/13 12:35:50;;;;;;;0.73;0.73;;;19.10;99.90;;;;;;5109700;27;20165;-70
2023/09/13 12:38:19;;;;;;;0.40;0.40;;;19.00;99.90;;;;;;5109751;27;20196;-70
2023/09/13 12:40:54;;;;;;;0.30;0.30;;;19.00;99.90;;;;;;5089652;28;20044;-70
2023/09/13 12:43:21;;;;;;;0.43;0.43;;;19.00;99.90;;;;;;5099661;28;20630;-70
2023/09/13 12:45:48;;;;;;;0.30;0.30;;;19.00;99.90;;;;;;5089246;28;20040;-70
2023/09/13 12:48:13;;;;;;;0.30;0.30;;;19.10;99.90;;;;;;5084498;28;20377;-70
2023/09/13 12:50:39;;;;;;;1.02;0.55;;;19.30;99.90;;;;;;5088782;28;20047;-70